createdAt,value
2023-04-19T00:01:50.480Z,8.60
2023-04-19T00:06:00.366Z,8.60
2023-04-19T00:10:10.637Z,8.60
2023-04-19T00:14:19.776Z,8.50
2023-04-19T00:18:30.228Z,8.60
2023-04-19T00:22:39.207Z,8.60
2023-04-19T00:26:48.076Z,8.60
2023-04-19T00:30:57.012Z,8.50
2023-04-19T00:35:08.342Z,8.50
2023-04-19T00:39:17.346Z,8.50
2023-04-19T00:43:26.227Z,8.50
2023-04-19T00:47:35.454Z,8.50
2023-04-19T00:51:46.183Z,8.50
2023-04-19T00:55:58.400Z,8.50
2023-04-19T01:00:09.950Z,8.40
2023-04-19T01:04:19.477Z,8.40
2023-04-19T01:08:30.205Z,8.40
2023-04-19T01:12:39.454Z,8.40
2023-04-19T01:16:49.751Z,8.40
2023-04-19T01:20:58.727Z,8.40
2023-04-19T01:25:10.793Z,8.40
2023-04-19T01:29:22.322Z,8.40
2023-04-19T01:33:31.360Z,8.40
2023-04-19T01:37:40.504Z,8.30
2023-04-19T01:41:51.323Z,8.30
2023-04-19T01:46:00.317Z,8.30
2023-04-19T01:50:10.565Z,8.30
2023-04-19T01:54:20.228Z,8.30
2023-04-19T01:58:30.771Z,8.40
2023-04-19T02:02:40.180Z,8.30
2023-04-19T02:06:49.395Z,8.40
2023-04-19T02:10:58.643Z,8.40
2023-04-19T02:15:10.612Z,8.40
2023-04-19T02:19:19.760Z,8.40
2023-04-19T02:23:28.971Z,8.40
2023-04-19T02:27:38.181Z,8.30
2023-04-19T02:31:48.852Z,8.40
2023-04-19T02:35:57.972Z,8.30
2023-04-19T02:40:09.312Z,8.30
2023-04-19T02:44:18.601Z,8.30
2023-04-19T02:48:29.232Z,8.30
2023-04-19T02:52:38.569Z,8.40
2023-04-19T02:56:47.642Z,8.30
2023-04-19T03:00:57.187Z,8.30
2023-04-19T03:05:09.162Z,8.30
2023-04-19T03:09:18.465Z,8.30
2023-04-19T03:13:27.487Z,8.30
2023-04-19T03:17:37.874Z,8.30
2023-04-19T03:21:48.708Z,8.40
2023-04-19T03:25:58.220Z,8.40
2023-04-19T03:30:10.867Z,8.40
2023-04-19T03:34:19.889Z,8.50
2023-04-19T03:38:31.079Z,8.50
2023-04-19T03:42:40.325Z,8.40
2023-04-19T03:46:49.354Z,8.50
2023-04-19T03:50:58.668Z,8.50
2023-04-19T03:55:11.160Z,8.50
2023-04-19T03:59:20.492Z,8.50
2023-04-19T04:03:29.890Z,8.60
2023-04-19T04:07:39.890Z,8.60
2023-04-19T04:11:50.507Z,8.70
2023-04-19T04:16:00.036Z,8.70
2023-04-19T04:20:12.116Z,8.60
2023-04-19T04:24:22.566Z,8.60
2023-04-19T04:28:33.995Z,8.60
2023-04-19T04:32:43.900Z,8.60
2023-04-19T04:36:53.644Z,8.60
2023-04-19T04:41:02.818Z,8.60
2023-04-19T04:45:13.764Z,8.60
2023-04-19T04:49:22.957Z,8.60
2023-04-19T04:53:32.055Z,8.50
2023-04-19T04:57:41.161Z,8.60
2023-04-19T05:01:51.545Z,8.60
2023-04-19T05:06:00.804Z,8.60
2023-04-19T05:10:10.781Z,8.60
2023-04-19T05:14:19.916Z,8.60
2023-04-19T05:18:30.785Z,8.60
2023-04-19T05:22:40.036Z,8.60
2023-04-19T05:26:49.197Z,8.60
2023-04-19T05:30:58.325Z,8.60
2023-04-19T05:35:10.354Z,8.70
2023-04-19T05:39:19.555Z,8.60
2023-04-19T05:43:28.628Z,8.70
2023-04-19T05:47:37.569Z,8.80
2023-04-19T05:51:48.347Z,8.80
2023-04-19T05:55:57.425Z,8.80
2023-04-19T06:00:09.935Z,8.80
2023-04-19T06:04:19.676Z,8.80
2023-04-19T06:08:30.347Z,8.80
2023-04-19T06:12:39.279Z,8.90
2023-04-19T06:16:48.322Z,8.90
2023-04-19T06:20:57.507Z,9.00
2023-04-19T06:25:08.864Z,9.00
2023-04-19T06:29:20.625Z,9.10
2023-04-19T06:33:30.486Z,9.20
2023-04-19T06:37:40.598Z,9.30
2023-04-19T06:41:51.517Z,9.50
2023-04-19T06:46:01.012Z,9.60
2023-04-19T06:50:11.303Z,9.70
2023-04-19T06:54:20.593Z,9.80
2023-04-19T06:58:34.042Z,10.00
2023-04-19T07:02:44.219Z,10.10
2023-04-19T07:06:53.301Z,10.20
2023-04-19T07:11:02.645Z,10.40
2023-04-19T07:15:13.954Z,10.60
2023-04-19T07:19:23.201Z,10.70
2023-04-19T07:23:32.440Z,10.80
2023-04-19T07:27:42.353Z,11.00
2023-04-19T07:31:55.714Z,11.10
2023-04-19T07:36:04.908Z,11.20
2023-04-19T07:40:15.860Z,11.40
2023-04-19T07:44:25.114Z,11.50
2023-04-19T07:48:36.572Z,11.80
2023-04-19T07:52:46.092Z,11.90
2023-04-19T07:56:58.061Z,12.10
2023-04-19T08:01:07.497Z,12.30
2023-04-19T08:05:19.229Z,12.40
2023-04-19T08:09:28.583Z,12.60
2023-04-19T08:13:38.755Z,12.80
2023-04-19T08:17:49.264Z,12.90
2023-04-19T08:22:00.494Z,13.20
2023-04-19T08:26:12.135Z,13.50
2023-04-19T08:30:21.748Z,13.60
2023-04-19T08:34:30.994Z,13.90
2023-04-19T08:38:46.600Z,13.90
2023-04-19T08:42:59.073Z,14.30
2023-04-19T08:47:10.232Z,14.70
2023-04-19T08:51:22.922Z,14.60
2023-04-19T08:55:34.164Z,14.90
2023-04-19T08:59:45.939Z,15.00
2023-04-19T09:04:07.214Z,15.60
2023-04-19T09:08:26.806Z,15.70
2023-04-19T09:12:38.132Z,16.00
2023-04-19T09:16:47.800Z,16.00
2023-04-19T09:20:58.044Z,16.00
2023-04-19T09:29:21.734Z,16.60
2023-04-19T09:33:34.857Z,17.10
2023-04-19T09:41:58.598Z,17.00
2023-04-19T09:46:34.645Z,16.90
2023-04-19T09:55:26.925Z,16.70
2023-04-19T10:00:45.474Z,16.80
2023-04-19T10:42:19.773Z,17.50
2023-04-19T10:46:42.191Z,17.90
2023-04-19T12:17:08.918Z,18.70
2023-04-19T12:26:33.638Z,19.40
2023-04-19T12:30:43.282Z,19.60
2023-04-19T12:34:52.329Z,19.80
2023-04-19T12:39:03.362Z,19.70
2023-04-19T12:43:13.981Z,19.80
2023-04-19T12:47:23.201Z,19.90
2023-04-19T12:51:33.140Z,19.90
2023-04-19T12:55:42.276Z,19.90
2023-04-19T12:59:53.018Z,20.20
2023-04-19T13:04:02.264Z,20.10
2023-04-19T13:08:11.625Z,19.90
2023-04-19T13:12:21.137Z,19.90
2023-04-19T13:16:31.848Z,19.70
2023-04-19T13:20:41.060Z,19.50
2023-04-19T13:24:50.095Z,19.30
2023-04-19T13:28:59.299Z,19.30
2023-04-19T13:33:09.898Z,19.40
2023-04-19T13:37:19.067Z,19.60
2023-04-19T13:41:28.199Z,19.70
2023-04-19T13:45:37.566Z,19.60
2023-04-19T13:49:52.488Z,19.50
2023-04-19T13:54:01.530Z,19.50
2023-04-19T13:58:10.829Z,19.50
2023-04-19T14:02:20.469Z,19.70
2023-04-19T14:06:31.409Z,19.60
2023-04-19T14:10:41.003Z,19.60
2023-04-19T14:14:50.393Z,19.50
2023-04-19T14:18:59.903Z,19.60
2023-04-19T14:23:11.105Z,19.50
2023-04-19T14:27:20.898Z,19.20
2023-04-19T14:31:30.125Z,19.30
2023-04-19T14:35:39.228Z,19.40
2023-04-19T14:39:49.839Z,19.50
2023-04-19T14:43:59.131Z,19.30
2023-04-19T14:48:08.709Z,19.10
2023-04-19T14:52:18.295Z,19.40
2023-04-19T14:56:29.037Z,19.50
2023-04-19T15:00:38.106Z,19.10
2023-04-19T15:04:48.175Z,18.80
2023-04-19T15:08:57.300Z,18.90
2023-04-19T15:13:08.166Z,19.10
2023-04-19T15:17:17.421Z,19.20
2023-04-19T15:21:26.693Z,19.20
2023-04-19T15:25:47.284Z,19.40
2023-04-19T18:51:14.283Z,16.10
2023-04-19T18:55:25.332Z,16.00
2023-04-19T18:59:46.275Z,16.00
2023-04-19T19:04:19.140Z,15.90
2023-04-19T19:13:44.956Z,15.70
2023-04-19T19:17:58.741Z,15.70
2023-04-19T19:22:29.050Z,15.50
2023-04-19T19:40:06.412Z,14.80
2023-04-19T19:44:46.847Z,14.50
2023-04-19T19:49:05.944Z,14.30
2023-04-19T19:53:36.405Z,14.10
2023-04-19T20:02:13.776Z,13.90
2023-04-19T20:11:05.583Z,13.80
2023-04-19T20:15:17.278Z,13.70
2023-04-19T20:30:12.940Z,13.50
2023-04-19T20:54:55.018Z,13.10
2023-04-19T21:14:05.531Z,12.70
2023-04-19T21:42:32.785Z,12.60
2023-04-19T22:06:22.440Z,12.60
